createdAt,value
2017-05-06T00:00:25.898Z,0
2017-05-06T00:01:06.409Z,0
2017-05-06T00:01:46.917Z,0
2017-05-06T00:02:27.449Z,0
2017-05-06T00:03:07.967Z,0
2017-05-06T00:03:48.497Z,0
2017-05-06T00:04:29.003Z,0
2017-05-06T00:05:09.527Z,0
2017-05-06T00:05:50.045Z,0
2017-05-06T00:06:30.577Z,0
2017-05-06T00:07:11.104Z,0
2017-05-06T00:07:51.634Z,0
2017-05-06T00:08:32.148Z,0
2017-05-06T00:09:12.673Z,0
2017-05-06T00:09:53.193Z,0
2017-05-06T00:10:33.709Z,0
2017-05-06T00:11:14.233Z,0
2017-05-06T00:11:54.771Z,0
2017-05-06T00:12:35.293Z,0
2017-05-06T00:13:15.812Z,0
2017-05-06T00:13:56.392Z,0
2017-05-06T00:14:36.904Z,0
2017-05-06T00:15:17.436Z,0
2017-05-06T00:15:57.956Z,0
2017-05-06T00:16:38.493Z,0
2017-05-06T00:17:19.009Z,0
2017-05-06T00:17:59.530Z,0
2017-05-06T00:18:40.059Z,0
2017-05-06T00:19:20.550Z,0
2017-05-06T00:20:01.080Z,0
2017-05-06T00:20:41.622Z,0
2017-05-06T00:21:22.135Z,0
2017-05-06T00:22:02.694Z,0
2017-05-06T00:22:43.208Z,0
2017-05-06T00:23:23.743Z,0
2017-05-06T00:24:04.251Z,0
2017-05-06T00:24:44.770Z,0
2017-05-06T00:25:25.277Z,0
2017-05-06T00:26:05.822Z,0
2017-05-06T00:26:46.357Z,0
2017-05-06T00:27:26.884Z,0
2017-05-06T00:28:07.402Z,0
2017-05-06T00:28:47.931Z,0
2017-05-06T00:29:28.461Z,0
2017-05-06T00:30:08.991Z,0
2017-05-06T00:30:49.531Z,0
2017-05-06T00:31:30.051Z,0
2017-05-06T00:32:10.583Z,0
2017-05-06T00:32:51.095Z,0
2017-05-06T00:33:31.617Z,0
2017-05-06T00:34:12.152Z,0
2017-05-06T00:34:52.692Z,0
2017-05-06T00:35:33.228Z,0
2017-05-06T00:36:13.764Z,0
2017-05-06T00:36:54.286Z,0
2017-05-06T00:37:34.820Z,0
2017-05-06T00:38:15.423Z,0
2017-05-06T00:38:57.058Z,0
2017-05-06T00:39:37.587Z,0
2017-05-06T00:40:18.113Z,0
2017-05-06T00:40:58.634Z,0
2017-05-06T00:43:20.951Z,0
2017-05-06T00:44:01.467Z,0
2017-05-06T00:44:41.993Z,0
2017-05-06T00:45:22.547Z,0
2017-05-06T00:46:03.068Z,0
2017-05-06T00:46:43.596Z,0
2017-05-06T00:47:24.119Z,0
2017-05-06T00:48:04.652Z,0
2017-05-06T00:48:45.178Z,0
2017-05-06T00:49:25.750Z,0
2017-05-06T00:50:06.217Z,0
2017-05-06T00:50:46.831Z,0
2017-05-06T00:51:27.358Z,0
2017-05-06T00:52:07.884Z,0
2017-05-06T00:52:48.454Z,0
2017-05-06T00:53:28.960Z,0
2017-05-06T00:54:09.490Z,0
2017-05-06T00:54:50.006Z,0
2017-05-06T00:55:30.644Z,0
2017-05-06T00:56:11.065Z,0
2017-05-06T00:56:51.569Z,0
2017-05-06T00:57:32.085Z,0
2017-05-06T00:58:12.597Z,0
2017-05-06T00:58:53.119Z,0
2017-05-06T00:59:33.787Z,0
2017-05-06T01:00:14.310Z,0
2017-05-06T01:00:54.802Z,0
2017-05-06T01:01:35.344Z,0
2017-05-06T01:02:15.869Z,0
2017-05-06T01:02:56.384Z,0
2017-05-06T01:03:36.901Z,0
2017-05-06T01:04:17.447Z,0
2017-05-06T01:04:57.942Z,0
2017-05-06T01:05:38.471Z,0
2017-05-06T01:06:18.980Z,0
2017-05-06T01:06:59.495Z,0
2017-05-06T01:07:40.022Z,0
2017-05-06T01:08:20.544Z,0
2017-05-06T01:09:01.065Z,0
2017-05-06T01:09:41.584Z,0
2017-05-06T01:10:22.098Z,0
2017-05-06T01:11:02.621Z,0
2017-05-06T01:11:43.178Z,0
2017-05-06T01:12:23.711Z,0
2017-05-06T01:13:04.218Z,0
2017-05-06T01:13:45.480Z,0
2017-05-06T01:14:26.004Z,0
2017-05-06T01:15:06.514Z,0
2017-05-06T01:15:47.029Z,0
2017-05-06T01:16:27.546Z,0
2017-05-06T01:17:08.070Z,0
2017-05-06T01:17:48.615Z,0
2017-05-06T01:18:29.096Z,0
2017-05-06T01:19:09.612Z,0
2017-05-06T01:19:50.122Z,0
2017-05-06T01:20:30.635Z,0
2017-05-06T01:21:11.184Z,0
2017-05-06T01:21:51.710Z,0
2017-05-06T01:22:32.212Z,0
2017-05-06T01:23:12.757Z,0
2017-05-06T01:23:53.288Z,0
2017-05-06T01:24:33.809Z,0
2017-05-06T01:25:14.340Z,0
2017-05-06T01:25:54.872Z,0
2017-05-06T01:26:35.393Z,0
2017-05-06T01:27:15.913Z,0
2017-05-06T01:27:56.448Z,0
2017-05-06T01:28:36.981Z,0
2017-05-06T01:29:17.505Z,0
2017-05-06T01:29:58.049Z,0
2017-05-06T01:30:38.577Z,0
2017-05-06T01:31:19.107Z,0
2017-05-06T01:31:59.625Z,0
2017-05-06T01:32:40.161Z,0
2017-05-06T01:33:20.683Z,0
2017-05-06T01:34:01.198Z,0
2017-05-06T01:34:41.783Z,0
2017-05-06T01:35:22.237Z,0
2017-05-06T01:36:02.741Z,0
2017-05-06T01:36:43.274Z,0
2017-05-06T01:37:23.809Z,0
2017-05-06T01:38:04.331Z,0
2017-05-06T01:38:44.857Z,0
2017-05-06T01:39:25.376Z,0
2017-05-06T01:40:05.902Z,0
2017-05-06T01:40:46.418Z,0
2017-05-06T01:41:26.930Z,0
2017-05-06T01:42:07.454Z,0
2017-05-06T01:42:47.975Z,0
2017-05-06T01:43:28.504Z,0
2017-05-06T01:44:09.125Z,0
2017-05-06T01:44:49.634Z,0
2017-05-06T01:45:30.157Z,0
2017-05-06T01:46:10.679Z,0
2017-05-06T01:46:51.217Z,0
2017-05-06T01:47:31.710Z,0
2017-05-06T01:48:12.227Z,0
2017-05-06T01:48:52.744Z,0
2017-05-06T01:49:33.261Z,0
2017-05-06T01:50:13.784Z,0
2017-05-06T01:50:54.295Z,0
2017-05-06T01:51:34.808Z,0
2017-05-06T01:52:15.333Z,0
2017-05-06T01:52:55.854Z,0
2017-05-06T01:53:36.376Z,0
2017-05-06T01:54:16.913Z,0
2017-05-06T01:54:57.410Z,0
2017-05-06T01:55:37.934Z,0
2017-05-06T01:56:18.463Z,0
2017-05-06T01:56:58.983Z,0
2017-05-06T01:57:39.498Z,0
2017-05-06T01:58:20.032Z,0
2017-05-06T01:59:00.533Z,0
2017-05-06T01:59:41.079Z,0
2017-05-06T02:00:21.619Z,0
2017-05-06T02:01:02.142Z,0
2017-05-06T02:01:42.681Z,0
2017-05-06T02:02:23.196Z,0
2017-05-06T02:03:03.711Z,0
2017-05-06T02:03:44.228Z,0
2017-05-06T02:04:24.769Z,0
2017-05-06T02:05:05.251Z,0
2017-05-06T02:05:45.784Z,0
2017-05-06T02:06:26.296Z,0
2017-05-06T02:07:06.814Z,0
2017-05-06T02:07:47.344Z,0
2017-05-06T02:08:27.875Z,0
2017-05-06T02:09:08.370Z,0
2017-05-06T02:09:48.896Z,0
2017-05-06T02:10:29.426Z,0
2017-05-06T02:11:09.959Z,0
2017-05-06T02:11:50.475Z,0
2017-05-06T02:12:30.993Z,0
2017-05-06T02:13:11.519Z,0
2017-05-06T02:13:52.032Z,0
2017-05-06T02:14:32.559Z,0
2017-05-06T02:15:13.094Z,0
2017-05-06T02:15:53.612Z,0
2017-05-06T02:16:34.138Z,0
2017-05-06T02:17:14.653Z,0
2017-05-06T02:17:55.174Z,0
2017-05-06T02:18:35.696Z,0
2017-05-06T02:19:16.217Z,0
2017-05-06T02:19:56.750Z,0
2017-05-06T02:20:37.265Z,0
2017-05-06T02:21:17.794Z,0
2017-05-06T02:21:58.314Z,0
2017-05-06T02:22:38.839Z,0
2017-05-06T02:23:19.365Z,0
2017-05-06T02:23:59.909Z,0
2017-05-06T02:24:40.447Z,0
2017-05-06T02:25:20.973Z,0
2017-05-06T02:26:01.496Z,0
2017-05-06T02:26:42.075Z,0
2017-05-06T02:27:22.589Z,0
2017-05-06T02:28:03.124Z,0
2017-05-06T02:28:43.625Z,0
2017-05-06T02:29:24.156Z,0
2017-05-06T02:30:04.690Z,0
2017-05-06T02:30:45.220Z,0
2017-05-06T02:31:25.735Z,0
2017-05-06T02:32:06.244Z,0
2017-05-06T02:32:46.761Z,0
2017-05-06T02:33:27.315Z,0
2017-05-06T02:34:07.849Z,0
2017-05-06T02:34:48.364Z,0
2017-05-06T02:35:28.885Z,0
2017-05-06T02:36:09.412Z,0
2017-05-06T02:36:49.999Z,0
2017-05-06T02:37:30.482Z,0
2017-05-06T02:38:10.988Z,0
2017-05-06T02:38:51.528Z,0
2017-05-06T02:39:32.047Z,0
2017-05-06T02:40:12.575Z,0
2017-05-06T02:40:53.093Z,0
2017-05-06T02:41:33.621Z,0
2017-05-06T02:42:14.145Z,0
2017-05-06T02:42:54.674Z,0
2017-05-06T02:43:35.223Z,0
2017-05-06T02:44:15.737Z,0
2017-05-06T02:44:56.253Z,0
2017-05-06T02:45:36.765Z,0
2017-05-06T02:46:17.277Z,0
2017-05-06T02:46:57.842Z,0
2017-05-06T02:47:38.386Z,0
2017-05-06T02:48:18.920Z,0
2017-05-06T02:48:59.436Z,0
2017-05-06T02:49:39.958Z,0
2017-05-06T02:50:20.483Z,0
2017-05-06T02:51:01.034Z,0
2017-05-06T02:51:41.565Z,0
2017-05-06T02:52:22.084Z,0
2017-05-06T02:53:02.608Z,0
2017-05-06T02:53:43.124Z,0
2017-05-06T02:54:23.648Z,0
2017-05-06T02:55:04.162Z,0
2017-05-06T02:55:44.688Z,0
2017-05-06T02:56:25.230Z,0
2017-05-06T02:57:05.730Z,0
2017-05-06T02:57:46.262Z,0
2017-05-06T02:58:26.787Z,0
2017-05-06T02:59:07.315Z,0
2017-05-06T02:59:47.832Z,0
2017-05-06T03:00:28.350Z,0
2017-05-06T03:01:08.878Z,0
2017-05-06T03:01:49.396Z,0
2017-05-06T03:02:29.914Z,0
2017-05-06T03:03:10.417Z,0
2017-05-06T03:03:50.932Z,0
2017-05-06T03:04:31.458Z,0
2017-05-06T03:05:11.986Z,0
2017-05-06T03:05:52.495Z,0
2017-05-06T03:06:33.012Z,0
2017-05-06T03:07:13.536Z,0
2017-05-06T03:07:54.053Z,0
2017-05-06T03:08:34.570Z,0
2017-05-06T03:09:15.087Z,0
2017-05-06T03:09:55.629Z,0
2017-05-06T03:10:36.197Z,0
2017-05-06T03:11:16.699Z,0
2017-05-06T03:11:57.235Z,0
2017-05-06T03:12:37.774Z,0
2017-05-06T03:13:18.289Z,0
2017-05-06T03:13:58.792Z,0
2017-05-06T03:14:39.331Z,0
2017-05-06T03:15:19.837Z,0
2017-05-06T03:16:00.363Z,0
2017-05-06T03:16:40.868Z,0
2017-05-06T03:17:21.389Z,0
2017-05-06T03:18:01.924Z,0
2017-05-06T03:18:42.427Z,0
2017-05-06T03:19:22.938Z,0
2017-05-06T03:20:03.476Z,0
2017-05-06T03:20:44.000Z,0
2017-05-06T03:21:24.522Z,0
2017-05-06T03:22:05.053Z,0
2017-05-06T03:22:45.575Z,0
2017-05-06T03:23:26.146Z,0
2017-05-06T03:24:06.692Z,0
2017-05-06T03:24:47.217Z,0
2017-05-06T03:25:27.740Z,0
2017-05-06T03:26:08.259Z,0
2017-05-06T03:26:48.786Z,0
2017-05-06T03:27:29.305Z,0
2017-05-06T03:28:09.829Z,0
2017-05-06T03:28:50.341Z,0
2017-05-06T03:29:30.866Z,0
2017-05-06T03:30:11.383Z,0
2017-05-06T03:30:51.907Z,0
2017-05-06T03:31:32.424Z,0
2017-05-06T03:32:12.940Z,0
2017-05-06T03:32:53.467Z,0
2017-05-06T03:33:33.985Z,0
2017-05-06T03:34:14.508Z,0
2017-05-06T03:34:55.041Z,0
2017-05-06T03:35:35.559Z,0
2017-05-06T03:36:16.082Z,0
2017-05-06T03:36:56.598Z,0
2017-05-06T03:37:37.110Z,0
2017-05-06T03:38:17.634Z,0
2017-05-06T03:38:58.163Z,0
2017-05-06T03:39:38.664Z,0
2017-05-06T03:40:19.223Z,0
2017-05-06T03:40:59.695Z,0
2017-05-06T03:41:40.205Z,0
2017-05-06T03:42:20.723Z,0
2017-05-06T03:43:01.300Z,0
2017-05-06T03:43:41.839Z,0
2017-05-06T03:44:22.363Z,0
2017-05-06T03:45:02.891Z,0
2017-05-06T03:45:43.401Z,0
2017-05-06T03:46:23.912Z,0
2017-05-06T03:47:04.464Z,0
2017-05-06T03:47:44.975Z,0
2017-05-06T03:48:25.495Z,0
2017-05-06T03:49:06.020Z,0
2017-05-06T03:49:46.539Z,0
2017-05-06T03:50:27.056Z,5
2017-05-06T03:51:07.576Z,5
2017-05-06T03:51:48.104Z,5
2017-05-06T03:52:28.617Z,5
2017-05-06T03:53:09.130Z,5
2017-05-06T03:53:49.661Z,5
2017-05-06T03:54:30.189Z,5
2017-05-06T03:55:10.721Z,5
2017-05-06T03:55:51.245Z,5
2017-05-06T03:56:31.777Z,5
2017-05-06T03:57:12.294Z,5
2017-05-06T03:57:52.822Z,5
2017-05-06T03:58:33.348Z,5
2017-05-06T03:59:13.870Z,5
2017-05-06T03:59:54.395Z,10
2017-05-06T04:00:34.914Z,10
2017-05-06T04:01:15.483Z,10
2017-05-06T04:01:55.963Z,10
2017-05-06T04:02:37.436Z,10
2017-05-06T04:03:17.981Z,10
2017-05-06T04:03:58.497Z,10
2017-05-06T04:04:39.022Z,10
2017-05-06T04:05:19.579Z,15
2017-05-06T04:06:00.124Z,15
2017-05-06T04:06:40.642Z,15
2017-05-06T04:07:21.191Z,15
2017-05-06T04:08:01.731Z,15
2017-05-06T04:08:42.244Z,15
2017-05-06T04:09:22.768Z,20
2017-05-06T04:10:03.284Z,20
2017-05-06T04:10:43.810Z,20
2017-05-06T04:11:24.335Z,20
2017-05-06T04:12:04.848Z,20
2017-05-06T04:12:45.375Z,20
2017-05-06T04:13:25.903Z,20
2017-05-06T04:14:06.450Z,25
2017-05-06T04:14:46.975Z,25
2017-05-06T04:15:27.500Z,25
2017-05-06T04:16:08.026Z,25
2017-05-06T04:16:48.543Z,25
2017-05-06T04:17:29.071Z,25
2017-05-06T04:18:09.590Z,25
2017-05-06T04:18:50.113Z,30
2017-05-06T04:19:30.633Z,30
2017-05-06T04:20:11.197Z,30
2017-05-06T04:20:51.665Z,30
2017-05-06T04:21:32.189Z,30
2017-05-06T04:22:12.706Z,30
2017-05-06T04:22:53.224Z,35
2017-05-06T04:23:33.741Z,35
2017-05-06T04:24:14.261Z,35
2017-05-06T04:24:54.787Z,35
2017-05-06T04:25:35.308Z,35
2017-05-06T04:26:15.843Z,35
2017-05-06T04:26:56.371Z,40
2017-05-06T04:27:36.911Z,40
2017-05-06T04:28:17.419Z,40
2017-05-06T04:28:57.952Z,40
2017-05-06T04:29:38.467Z,40
2017-05-06T04:30:19.004Z,40
2017-05-06T04:30:59.524Z,40
2017-05-06T04:31:40.049Z,45
2017-05-06T04:32:20.577Z,45
2017-05-06T04:33:01.113Z,45
2017-05-06T04:33:41.625Z,45
2017-05-06T04:34:22.158Z,45
2017-05-06T04:35:02.676Z,50
2017-05-06T04:35:43.209Z,50
2017-05-06T04:36:23.728Z,50
2017-05-06T04:37:04.251Z,50
2017-05-06T04:37:44.773Z,50
2017-05-06T04:38:25.299Z,55
2017-05-06T04:39:05.820Z,55
2017-05-06T04:39:46.346Z,55
2017-05-06T04:40:26.872Z,55
2017-05-06T04:41:07.390Z,55
2017-05-06T04:41:47.917Z,55
2017-05-06T04:42:28.443Z,55
2017-05-06T04:43:08.965Z,50
2017-05-06T04:43:49.493Z,50
2017-05-06T04:44:30.016Z,55
2017-05-06T04:45:10.539Z,60
2017-05-06T04:45:51.069Z,60
2017-05-06T04:46:31.630Z,65
2017-05-06T04:47:12.102Z,65
2017-05-06T04:47:52.611Z,65
2017-05-06T04:48:33.133Z,70
2017-05-06T04:49:13.659Z,70
2017-05-06T04:49:54.203Z,70
2017-05-06T04:50:34.724Z,70
2017-05-06T04:51:15.255Z,70
2017-05-06T04:51:55.790Z,70
2017-05-06T04:52:36.312Z,70
2017-05-06T04:53:16.845Z,70
2017-05-06T04:53:59.316Z,75
2017-05-06T04:54:39.841Z,75
2017-05-06T04:55:20.366Z,75
2017-05-06T04:56:00.890Z,75
2017-05-06T04:56:41.413Z,75
2017-05-06T04:57:21.976Z,80
2017-05-06T04:58:03.382Z,80
2017-05-06T04:58:43.929Z,80
2017-05-06T04:59:24.449Z,80
2017-05-06T05:00:04.998Z,80
2017-05-06T05:00:45.481Z,80
2017-05-06T05:01:26.024Z,80
2017-05-06T05:02:06.527Z,80
2017-05-06T05:02:47.059Z,85
2017-05-06T05:03:27.575Z,85
2017-05-06T05:04:08.103Z,85
2017-05-06T05:04:48.618Z,80
2017-05-06T05:05:29.129Z,85
2017-05-06T05:06:09.643Z,85
2017-05-06T05:06:50.161Z,85
2017-05-06T05:07:30.683Z,85
2017-05-06T05:08:11.216Z,85
2017-05-06T05:08:51.758Z,85
2017-05-06T05:09:32.284Z,85
2017-05-06T05:10:12.805Z,85
2017-05-06T05:10:53.342Z,85
2017-05-06T05:11:33.856Z,85
2017-05-06T05:12:14.405Z,90
2017-05-06T05:12:54.919Z,90
2017-05-06T05:13:35.437Z,90
2017-05-06T05:14:15.955Z,90
2017-05-06T05:14:56.478Z,85
2017-05-06T05:15:37.001Z,90
2017-05-06T05:16:17.550Z,95
2017-05-06T05:16:58.071Z,95
2017-05-06T05:17:38.590Z,95
2017-05-06T05:18:19.142Z,95
2017-05-06T05:18:59.667Z,100
2017-05-06T05:19:40.200Z,100
2017-05-06T05:20:20.773Z,100
2017-05-06T05:21:01.429Z,100
2017-05-06T05:21:41.929Z,100
2017-05-06T05:22:22.519Z,100
2017-05-06T05:23:03.032Z,100
2017-05-06T05:23:43.549Z,100
2017-05-06T05:24:24.092Z,100
2017-05-06T05:25:04.616Z,100
2017-05-06T05:25:45.142Z,105
2017-05-06T05:26:26.445Z,105
2017-05-06T05:27:06.196Z,105
2017-05-06T05:27:46.724Z,105
2017-05-06T05:28:27.251Z,105
2017-05-06T05:29:07.785Z,105
2017-05-06T05:29:48.318Z,105
2017-05-06T05:30:28.831Z,105
2017-05-06T05:31:09.355Z,105
2017-05-06T05:31:49.878Z,105
2017-05-06T05:32:30.395Z,105
2017-05-06T05:33:10.943Z,105
2017-05-06T05:33:51.471Z,105
2017-05-06T05:34:31.995Z,105
2017-05-06T05:35:12.516Z,105
2017-05-06T05:35:53.032Z,105
2017-05-06T05:36:33.557Z,105
2017-05-06T05:37:14.075Z,105
2017-05-06T05:37:54.601Z,110
2017-05-06T05:38:35.135Z,115
2017-05-06T05:39:15.658Z,125
2017-05-06T05:39:56.171Z,140
2017-05-06T05:40:36.688Z,170
2017-05-06T05:41:17.226Z,185
2017-05-06T05:41:57.731Z,205
2017-05-06T05:42:38.249Z,220
2017-05-06T05:43:18.808Z,235
2017-05-06T05:43:59.305Z,240
2017-05-06T05:44:39.889Z,245
2017-05-06T05:45:20.429Z,225
2017-05-06T05:46:00.959Z,240
2017-05-06T05:46:41.486Z,230
2017-05-06T05:47:22.001Z,230
2017-05-06T05:48:02.564Z,220
2017-05-06T05:48:43.131Z,210
2017-05-06T05:49:23.682Z,215
2017-05-06T05:52:04.115Z,200
2017-05-06T05:52:44.084Z,175
2017-05-06T05:53:24.451Z,190
2017-05-06T05:54:04.979Z,195
2017-05-06T05:54:45.503Z,190
2017-05-06T05:55:26.020Z,190
2017-05-06T05:56:06.536Z,195
2017-05-06T05:56:47.081Z,205
2017-05-06T05:57:27.654Z,210
2017-05-06T05:58:08.161Z,215
2017-05-06T05:58:48.693Z,215
2017-05-06T05:59:29.216Z,225
2017-05-06T06:00:09.727Z,225
2017-05-06T06:00:50.234Z,225
2017-05-06T06:01:30.753Z,230
2017-05-06T06:02:11.300Z,230
2017-05-06T06:02:51.827Z,235
2017-05-06T06:03:32.316Z,240
2017-05-06T06:04:12.835Z,240
2017-05-06T06:04:53.363Z,240
2017-05-06T06:05:33.884Z,245
2017-05-06T06:06:14.406Z,240
2017-05-06T06:06:54.930Z,235
2017-05-06T06:07:35.449Z,240
2017-05-06T06:08:15.991Z,215
2017-05-06T06:08:56.498Z,175
2017-05-06T06:09:37.017Z,190
2017-05-06T06:10:17.539Z,175
2017-05-06T06:10:58.077Z,170
2017-05-06T06:11:38.590Z,135
2017-05-06T06:12:19.099Z,140
2017-05-06T06:12:59.633Z,180
2017-05-06T06:13:40.121Z,190
2017-05-06T06:14:20.651Z,190
2017-05-06T06:15:01.165Z,160
2017-05-06T06:15:41.704Z,170
2017-05-06T06:16:22.226Z,165
2017-05-06T06:17:02.760Z,140
2017-05-06T06:17:44.162Z,140
2017-05-06T06:18:23.839Z,170
2017-05-06T06:19:04.377Z,165
2017-05-06T06:19:44.909Z,135
2017-05-06T06:20:25.422Z,160
2017-05-06T06:21:05.933Z,140
2017-05-06T06:21:46.461Z,145
2017-05-06T06:22:26.985Z,165
2017-05-06T06:23:07.497Z,165
2017-05-06T06:23:48.866Z,165
2017-05-06T06:24:29.391Z,165
2017-05-06T06:25:09.912Z,165
2017-05-06T06:25:50.448Z,165
2017-05-06T06:26:30.986Z,165
2017-05-06T06:27:11.510Z,160
2017-05-06T06:27:52.120Z,160
2017-05-06T06:28:32.638Z,130
2017-05-06T06:29:13.554Z,160
2017-05-06T06:29:54.132Z,155
2017-05-06T06:30:34.615Z,155
2017-05-06T06:31:15.136Z,160
2017-05-06T06:31:55.683Z,160
2017-05-06T06:32:36.207Z,155
2017-05-06T06:33:16.732Z,155
2017-05-06T06:33:57.266Z,160
2017-05-06T06:34:37.785Z,155
2017-05-06T06:35:18.303Z,160
2017-05-06T06:35:58.817Z,175
2017-05-06T06:36:39.342Z,175
2017-05-06T06:37:19.857Z,180
2017-05-06T06:38:00.386Z,180
2017-05-06T06:38:40.905Z,175
2017-05-06T06:39:21.428Z,190
2017-05-06T06:40:01.953Z,200
2017-05-06T06:40:42.462Z,200
2017-05-06T06:41:22.993Z,195
2017-05-06T06:42:03.540Z,180
2017-05-06T06:42:44.073Z,200
2017-05-06T06:43:24.588Z,210
2017-05-06T06:44:05.138Z,240
2017-05-06T06:44:45.670Z,215
2017-05-06T06:45:26.206Z,250
2017-05-06T06:46:06.747Z,220
2017-05-06T06:46:47.256Z,215
2017-05-06T06:47:27.808Z,210
2017-05-06T06:48:08.316Z,235
2017-05-06T06:48:48.846Z,230
2017-05-06T06:49:29.390Z,200
2017-05-06T06:50:09.928Z,245
2017-05-06T06:50:50.470Z,245
2017-05-06T06:51:30.977Z,240
2017-05-06T06:52:11.513Z,215
2017-05-06T06:52:52.027Z,210
2017-05-06T06:53:32.559Z,230
2017-05-06T06:54:13.092Z,215
2017-05-06T06:54:53.687Z,210
2017-05-06T06:55:34.600Z,205
2017-05-06T06:56:15.123Z,225
2017-05-06T06:56:55.650Z,230
2017-05-06T06:57:36.183Z,245
2017-05-06T06:58:16.707Z,275
2017-05-06T06:58:57.232Z,255
2017-05-06T06:59:37.751Z,265
2017-05-06T07:00:18.286Z,275
2017-05-06T07:00:58.816Z,290
2017-05-06T07:01:39.338Z,280
2017-05-06T07:02:19.858Z,295
2017-05-06T07:03:00.483Z,285
2017-05-06T07:03:40.959Z,275
2017-05-06T07:04:21.493Z,270
2017-05-06T07:05:02.005Z,270
2017-05-06T07:05:42.528Z,270
2017-05-06T07:06:23.055Z,265
2017-05-06T07:07:03.562Z,255
2017-05-06T07:07:44.145Z,245
2017-05-06T07:08:24.609Z,240
2017-05-06T07:09:05.127Z,240
2017-05-06T07:09:45.645Z,235
2017-05-06T07:10:26.267Z,235
2017-05-06T07:11:06.751Z,200
2017-05-06T07:11:47.283Z,215
2017-05-06T07:12:27.812Z,205
2017-05-06T07:13:08.332Z,200
2017-05-06T07:13:48.852Z,190
2017-05-06T07:14:29.397Z,185
2017-05-06T07:15:09.898Z,185
2017-05-06T07:15:50.428Z,185
2017-05-06T07:16:30.934Z,190
2017-05-06T07:17:11.455Z,190
2017-05-06T07:17:51.985Z,190
2017-05-06T07:18:32.520Z,190
2017-05-06T07:19:13.041Z,195
2017-05-06T07:19:53.571Z,195
2017-05-06T07:20:34.091Z,200
2017-05-06T07:21:14.617Z,195
2017-05-06T07:21:55.142Z,195
2017-05-06T07:22:35.665Z,195
2017-05-06T07:23:16.216Z,195
2017-05-06T07:23:56.741Z,200
2017-05-06T07:24:37.274Z,195
2017-05-06T07:25:17.796Z,195
2017-05-06T07:25:58.326Z,200
2017-05-06T07:26:38.873Z,210
2017-05-06T07:27:19.407Z,220
2017-05-06T07:27:59.935Z,255
2017-05-06T07:28:40.444Z,250
2017-05-06T07:29:20.963Z,260
2017-05-06T07:30:01.493Z,255
2017-05-06T07:30:42.005Z,255
2017-05-06T07:31:22.517Z,245
2017-05-06T07:32:03.044Z,265
2017-05-06T07:32:43.559Z,270
2017-05-06T07:33:24.077Z,265
2017-05-06T07:34:04.613Z,265
2017-05-06T07:34:45.135Z,270
2017-05-06T07:35:25.648Z,265
2017-05-06T07:36:06.186Z,275
2017-05-06T07:36:46.710Z,280
2017-05-06T07:37:27.271Z,280
2017-05-06T07:38:07.819Z,270
2017-05-06T07:38:48.329Z,290
2017-05-06T07:39:28.845Z,325
2017-05-06T07:40:09.361Z,300
2017-05-06T07:40:49.880Z,310
2017-05-06T07:41:30.400Z,305
2017-05-06T07:42:10.931Z,310
2017-05-06T07:42:51.458Z,295
2017-05-06T07:43:31.989Z,305
2017-05-06T07:44:12.501Z,305
2017-05-06T07:44:53.017Z,305
2017-05-06T07:45:33.538Z,310
2017-05-06T07:46:14.060Z,305
2017-05-06T07:46:54.579Z,300
2017-05-06T07:47:35.353Z,295
2017-05-06T07:48:15.859Z,295
2017-05-06T07:48:56.385Z,290
2017-05-06T07:49:36.957Z,285
2017-05-06T07:50:17.495Z,290
2017-05-06T07:50:58.017Z,295
2017-05-06T07:51:38.551Z,295
2017-05-06T07:52:19.102Z,290
2017-05-06T07:52:59.643Z,285
2017-05-06T07:53:40.166Z,280
2017-05-06T07:54:20.695Z,280
2017-05-06T07:55:01.227Z,280
2017-05-06T07:55:41.757Z,280
2017-05-06T07:56:22.347Z,275
2017-05-06T07:57:02.874Z,275
2017-05-06T07:59:41.555Z,265
2017-05-06T08:00:22.077Z,255
2017-05-06T08:01:02.696Z,260
2017-05-06T08:01:55.669Z,255
2017-05-06T08:02:36.214Z,260
2017-05-06T08:03:16.751Z,260
2017-05-06T08:03:57.752Z,255
2017-05-06T08:04:38.238Z,255
2017-05-06T08:05:18.765Z,240
2017-05-06T08:05:59.239Z,240
2017-05-06T08:06:39.749Z,240
2017-05-06T08:07:20.246Z,225
2017-05-06T08:08:00.760Z,225
2017-05-06T08:08:41.288Z,215
2017-05-06T08:09:21.836Z,225
2017-05-06T08:10:02.307Z,225
2017-05-06T08:10:42.829Z,220
2017-05-06T08:11:23.428Z,225
2017-05-06T08:12:04.014Z,230
2017-05-06T08:12:44.473Z,215
2017-05-06T08:13:25.020Z,220
2017-05-06T08:14:05.470Z,215
2017-05-06T08:14:46.005Z,220
2017-05-06T08:15:26.468Z,220
2017-05-06T08:16:06.944Z,215
2017-05-06T08:16:47.502Z,220
2017-05-06T08:17:27.992Z,220
2017-05-06T08:18:08.513Z,225
2017-05-06T08:18:49.793Z,215
2017-05-06T08:19:30.325Z,220
2017-05-06T08:20:10.874Z,225
2017-05-06T08:20:51.383Z,225
2017-05-06T08:21:31.908Z,225
2017-05-06T08:22:12.495Z,230
2017-05-06T08:22:52.981Z,225
2017-05-06T08:23:33.511Z,225
2017-05-06T08:24:14.039Z,220
2017-05-06T08:24:54.559Z,220
2017-05-06T08:25:35.081Z,220
2017-05-06T08:26:15.605Z,225
2017-05-06T08:26:56.122Z,220
2017-05-06T08:27:36.635Z,215
2017-05-06T08:28:17.158Z,215
2017-05-06T08:28:57.718Z,215
2017-05-06T08:29:38.228Z,215
2017-05-06T08:30:18.755Z,220
2017-05-06T08:30:59.272Z,210
2017-05-06T08:33:27.846Z,210
2017-05-06T08:34:08.373Z,210
2017-05-06T08:34:48.892Z,205
2017-05-06T08:35:29.428Z,200
2017-05-06T08:36:09.954Z,200
2017-05-06T08:36:50.627Z,195
2017-05-06T08:37:31.169Z,195
2017-05-06T08:38:11.701Z,195
2017-05-06T08:38:52.220Z,195
2017-05-06T08:39:32.726Z,200
2017-05-06T08:40:13.251Z,200
2017-05-06T08:40:53.786Z,195
2017-05-06T08:41:34.329Z,195
2017-05-06T08:42:14.835Z,200
2017-05-06T08:42:55.373Z,200
2017-05-06T08:43:35.898Z,200
2017-05-06T08:44:16.417Z,205
2017-05-06T08:44:56.932Z,205
2017-05-06T08:45:37.459Z,205
2017-05-06T08:46:17.982Z,200
2017-05-06T08:46:58.503Z,200
2017-05-06T08:47:39.032Z,200
2017-05-06T08:48:19.551Z,200
2017-05-06T08:49:00.088Z,200
2017-05-06T08:49:40.618Z,200
2017-05-06T08:50:21.139Z,200
2017-05-06T08:51:01.670Z,200
2017-05-06T08:51:42.229Z,195
2017-05-06T08:52:22.741Z,195
2017-05-06T08:53:03.268Z,195
2017-05-06T08:53:43.778Z,195
2017-05-06T08:54:24.316Z,190
2017-05-06T08:55:04.845Z,190
2017-05-06T08:55:45.371Z,195
2017-05-06T08:56:25.907Z,190
2017-05-06T08:57:06.435Z,185
2017-05-06T08:57:46.985Z,185
2017-05-06T08:58:27.504Z,185
2017-05-06T08:59:08.020Z,190
2017-05-06T08:59:48.540Z,195
2017-05-06T09:00:29.045Z,195
2017-05-06T09:01:09.569Z,195
2017-05-06T09:01:50.090Z,195
2017-05-06T09:02:30.612Z,200
2017-05-06T09:03:11.147Z,195
2017-05-06T09:03:51.661Z,200
2017-05-06T09:04:32.204Z,205
2017-05-06T09:05:12.722Z,205
2017-05-06T09:05:53.251Z,215
2017-05-06T09:06:33.774Z,215
2017-05-06T09:07:14.302Z,220
2017-05-06T09:07:54.816Z,225
2017-05-06T09:08:35.343Z,225
2017-05-06T09:09:15.866Z,225
2017-05-06T09:09:56.397Z,230
2017-05-06T09:10:36.927Z,230
2017-05-06T09:11:17.440Z,230
2017-05-06T09:11:57.963Z,220
2017-05-06T09:12:38.486Z,225
2017-05-06T09:13:19.008Z,230
2017-05-06T09:13:59.522Z,230
2017-05-06T09:14:40.038Z,235
2017-05-06T09:15:20.586Z,240
2017-05-06T09:16:01.122Z,235
2017-05-06T09:16:41.657Z,230
2017-05-06T09:17:22.185Z,240
2017-05-06T09:18:02.707Z,240
2017-05-06T09:18:43.234Z,245
2017-05-06T09:19:23.765Z,240
2017-05-06T09:20:04.286Z,235
2017-05-06T09:20:44.819Z,235
2017-05-06T09:21:25.325Z,230
2017-05-06T09:22:05.842Z,240
2017-05-06T09:22:46.365Z,240
2017-05-06T09:23:26.887Z,240
2017-05-06T09:24:07.415Z,235
2017-05-06T09:24:48.616Z,225
2017-05-06T09:25:29.138Z,225
2017-05-06T09:26:09.659Z,220
2017-05-06T09:26:50.189Z,220
2017-05-06T09:27:30.710Z,220
2017-05-06T09:28:11.277Z,220
2017-05-06T09:28:51.803Z,220
2017-05-06T09:29:32.341Z,220
2017-05-06T09:30:12.841Z,225
2017-05-06T09:30:53.369Z,225
2017-05-06T09:31:33.894Z,230
2017-05-06T09:32:14.428Z,230
2017-05-06T09:32:54.947Z,230
2017-05-06T09:33:35.478Z,230
2017-05-06T09:34:16.066Z,245
2017-05-06T09:34:56.619Z,235
2017-05-06T09:35:37.176Z,235
2017-05-06T09:36:17.694Z,235
2017-05-06T09:36:58.233Z,235
2017-05-06T09:37:38.751Z,240
2017-05-06T09:38:19.293Z,250
2017-05-06T09:39:00.149Z,245
2017-05-06T09:39:40.414Z,250
2017-05-06T09:40:21.049Z,255
2017-05-06T09:41:01.640Z,255
2017-05-06T09:41:42.140Z,245
2017-05-06T09:42:23.059Z,240
2017-05-06T09:43:03.597Z,240
2017-05-06T09:43:44.178Z,240
2017-05-06T09:44:24.670Z,240
2017-05-06T09:45:05.201Z,235